Time;durP1;ratioP1;P1;durP2;ratioP2;P2;SDS_P1;SDS_P2;PMS_P1;PMS_P2;Temp;Humidity;BMP_temperature;BMP_pressure;BME280_temperature;BME280_humidity;BME280_pressure;Samples;Min_cycle;Max_cycle;Signal;HPM_P1;HPM_P2
2021/05/10 00:00:15;;;;;;;9.13;8.15;;;;;;;;;;5034475;28;20400;-63
2021/05/10 00:03:01;;;;;;;10.32;9.23;;;;;;;;;;5034886;28;20104;-63
2021/05/10 00:05:47;;;;;;;10.55;8.23;;;;;;;;;;5034420;28;20731;-63
2021/05/10 00:08:35;;;;;;;9.27;8.20;;;;;;;;;;5034323;28;20496;-63
2021/05/10 00:11:20;;;;;;;10.45;9.35;;;;;;;;;;5033574;28;20051;-63
2021/05/10 00:14:06;;;;;;;9.80;8.85;;;;;;;;;;5033274;28;20122;-63
2021/05/10 00:16:51;;;;;;;11.88;9.82;;;;;;;;;;5034209;28;20041;-63
2021/05/10 00:19:37;;;;;;;11.13;10.02;;;;;;;;;;5034011;28;20049;-63
2021/05/10 00:22:22;;;;;;;11.70;10.45;;;;;;;;;;5033588;28;20045;-63
2021/05/10 00:25:08;;;;;;;12.60;11.13;;;;;;;;;;5033006;28;20412;-63
2021/05/10 00:27:53;;;;;;;12.35;11.15;;;;;;;;;;5034231;28;20045;-63
2021/05/10 00:30:38;;;;;;;11.80;10.57;;;;;;;;;;5033737;28;20045;-64
2021/05/10 00:33:24;;;;;;;13.55;12.13;;;;;;;;;;5033288;28;20084;-64
2021/05/10 00:36:09;;;;;;;12.82;11.13;;;;;;;;;;5034017;28;20072;-62
2021/05/10 00:38:54;;;;;;;11.23;10.13;;;;;;;;;;5033965;28;20553;-64
2021/05/10 00:41:40;;;;;;;12.50;11.25;;;;;;;;;;5033685;28;20045;-64
2021/05/10 00:44:25;;;;;;;16.80;11.13;;;;;;;;;;5032947;28;20527;-62
2021/05/10 00:47:11;;;;;;;11.73;10.52;;;;;;;;;;5033151;28;20115;-64
2021/05/10 00:49:56;;;;;;;11.95;10.75;;;;;;;;;;5033436;28;20496;-63
2021/05/10 00:52:42;;;;;;;12.95;11.57;;;;;;;;;;5032720;28;20127;-63
2021/05/10 00:55:28;;;;;;;13.00;11.68;;;;;;;;;;5033501;28;20108;-63
2021/05/10 00:58:13;;;;;;;14.18;11.52;;;;;;;;;;5033547;28;20055;-63
2021/05/10 01:00:58;;;;;;;12.63;11.30;;;;;;;;;;5018385;28;20505;-63
2021/05/10 01:03:43;;;;;;;11.43;10.32;;;;;;;;;;5033040;28;20419;-63
2021/05/10 01:06:31;;;;;;;12.27;10.98;;;;;;;;;;5033382;28;20045;-63
2021/05/10 01:09:17;;;;;;;12.65;11.48;;;;;;;;;;5033209;28;20061;-63
2021/05/10 01:12:02;;;;;;;12.40;10.48;;;;;;;;;;5033434;28;20049;-64
2021/05/10 01:14:48;;;;;;;12.25;11.00;;;;;;;;;;5031597;28;20049;-63
2021/05/10 01:17:53;;;;;;;13.35;10.15;;;;;;;;;;5018561;28;20053;-62
2021/05/10 01:20:38;;;;;;;12.25;10.85;;;;;;;;;;5032692;28;20470;-63
2021/05/10 01:23:24;;;;;;;11.63;10.30;;;;;;;;;;5017483;28;20563;-64
2021/05/10 01:26:09;;;;;;;12.38;11.15;;;;;;;;;;5032999;28;20069;-64
2021/05/10 01:28:54;;;;;;;15.75;12.05;;;;;;;;;;5033143;28;20045;-63
2021/05/10 01:31:40;;;;;;;12.25;11.00;;;;;;;;;;5032625;28;20056;-63
2021/05/10 01:34:25;;;;;;;13.43;10.95;;;;;;;;;;5032170;28;20115;-63
2021/05/10 01:37:13;;;;;;;12.27;10.98;;;;;;;;;;5018311;28;20164;-63
2021/05/10 01:39:58;;;;;;;12.63;11.35;;;;;;;;;;5032407;28;20057;-63
2021/05/10 01:42:43;;;;;;;12.20;11.10;;;;;;;;;;5032768;28;20056;-63
2021/05/10 01:45:29;;;;;;;14.10;11.35;;;;;;;;;;5032007;28;20124;-64
2021/05/10 01:48:18;;;;;;;12.25;11.05;;;;;;;;;;5018295;28;20129;-63
2021/05/10 01:51:04;;;;;;;10.60;9.40;;;;;;;;;;5032112;28;20053;-63
2021/05/10 01:53:49;;;;;;;11.15;9.95;;;;;;;;;;5032341;28;20403;-63
2021/05/10 01:56:37;;;;;;;10.82;9.70;;;;;;;;;;5031480;28;20041;-63
2021/05/10 01:59:22;;;;;;;13.10;11.07;;;;;;;;;;5032441;28;20361;-63
2021/05/10 02:02:08;;;;;;;10.77;9.70;;;;;;;;;;5032336;28;20130;-62
2021/05/10 02:05:11;;;;;;;10.82;9.82;;;;;;;;;;5031148;28;20077;-63
2021/05/10 02:07:57;;;;;;;10.48;9.38;;;;;;;;;;5032395;28;20068;-63
2021/05/10 02:10:44;;;;;;;12.88;10.07;;;;;;;;;;5032204;28;20397;-63
2021/05/10 02:13:33;;;;;;;11.35;9.65;;;;;;;;;;5032120;28;20484;-63
2021/05/10 02:16:19;;;;;;;11.07;9.73;;;;;;;;;;5030383;28;20396;-64
2021/05/10 02:19:04;;;;;;;12.77;10.55;;;;;;;;;;5031067;28;20116;-63
2021/05/10 02:21:50;;;;;;;10.05;9.00;;;;;;;;;;5032162;28;20385;-63
2021/05/10 02:24:38;;;;;;;10.07;9.07;;;;;;;;;;5031400;28;20049;-63
2021/05/10 02:27:23;;;;;;;13.27;10.05;;;;;;;;;;5032383;28;20559;-62
2021/05/10 02:30:09;;;;;;;14.57;10.32;;;;;;;;;;5031944;28;20072;-63
2021/05/10 02:32:54;;;;;;;13.13;9.82;;;;;;;;;;5032131;28;20072;-63
2021/05/10 02:35:55;;;;;;;10.88;9.43;;;;;;;;;;5031386;28;20407;-62
2021/05/10 02:38:40;;;;;;;10.85;9.75;;;;;;;;;;5031098;28;20059;-64
2021/05/10 02:41:25;;;;;;;11.60;9.77;;;;;;;;;;5031702;28;20045;-64
2021/05/10 02:44:11;;;;;;;11.85;10.65;;;;;;;;;;5031839;28;20435;-63
2021/05/10 02:46:56;;;;;;;11.88;10.80;;;;;;;;;;5031087;28;20054;-63
2021/05/10 02:49:42;;;;;;;16.75;10.93;;;;;;;;;;5035757;28;20045;-63
2021/05/10 02:52:27;;;;;;;12.43;10.88;;;;;;;;;;5035877;28;20128;-63
2021/05/10 02:55:13;;;;;;;13.35;11.95;;;;;;;;;;5035670;28;20060;-63
2021/05/10 02:57:58;;;;;;;12.50;11.32;;;;;;;;;;5035257;28;20164;-63
2021/05/10 03:00:43;;;;;;;14.27;11.90;;;;;;;;;;5035560;28;20182;-62
2021/05/10 03:03:28;;;;;;;14.05;12.05;;;;;;;;;;5035659;28;20054;-63
2021/05/10 03:06:14;;;;;;;13.30;11.90;;;;;;;;;;5035175;28;20053;-63
2021/05/10 03:08:59;;;;;;;13.20;10.90;;;;;;;;;;5020548;28;20121;-63
2021/05/10 03:11:47;;;;;;;12.73;11.60;;;;;;;;;;5035410;28;20072;-63
2021/05/10 03:14:32;;;;;;;15.25;12.07;;;;;;;;;;5035561;28;20050;-63
2021/05/10 03:17:18;;;;;;;13.75;12.50;;;;;;;;;;5034733;28;20053;-62
2021/05/10 03:20:06;;;;;;;13.77;12.35;;;;;;;;;;5035077;28;20083;-63
2021/05/10 03:22:56;;;;;;;12.63;11.25;;;;;;;;;;5035335;28;20136;-62
2021/05/10 03:25:41;;;;;;;13.30;11.68;;;;;;;;;;5035376;28;20518;-63
2021/05/10 03:28:26;;;;;;;12.38;11.15;;;;;;;;;;5034511;28;20661;-62
2021/05/10 03:31:12;;;;;;;13.05;11.75;;;;;;;;;;5035096;28;20041;-62
2021/05/10 03:33:57;;;;;;;12.00;10.80;;;;;;;;;;5035024;28;20045;-63
2021/05/10 03:36:43;;;;;;;12.70;11.40;;;;;;;;;;5035012;28;20475;-63
2021/05/10 03:39:28;;;;;;;14.43;11.88;;;;;;;;;;5034771;28;20064;-63
2021/05/10 03:42:13;;;;;;;12.30;11.10;;;;;;;;;;5034998;28;20041;-63
2021/05/10 03:44:59;;;;;;;13.25;11.90;;;;;;;;;;5035014;28;20061;-62
2021/05/10 03:47:44;;;;;;;13.70;12.20;;;;;;;;;;5034315;28;20052;-62
2021/05/10 03:50:30;;;;;;;12.95;11.65;;;;;;;;;;5034687;28;20056;-62
2021/05/10 03:53:15;;;;;;;12.65;11.35;;;;;;;;;;5034740;28;20057;-63
2021/05/10 03:56:05;;;;;;;13.10;11.80;;;;;;;;;;5034010;28;20057;-63
2021/05/10 03:58:50;;;;;;;13.38;11.93;;;;;;;;;;5034664;28;20072;-63
2021/05/10 04:01:35;;;;;;;12.63;11.52;;;;;;;;;;5034417;28;20045;-62
2021/05/10 04:07:51;;;;;;;13.30;11.38;;;;;;;;;;4991804;28;20056;-64
2021/05/10 04:16:26;;;;;;;11.30;10.20;;;;;;;;;;5033370;28;20057;-63
2021/05/10 04:19:11;;;;;;;11.15;10.05;;;;;;;;;;5014455;28;20045;-64
2021/05/10 04:21:56;;;;;;;11.18;10.00;;;;;;;;;;5014417;28;20045;-64
2021/05/10 04:24:42;;;;;;;9.20;8.35;;;;;;;;;;5014452;28;20042;-64
2021/05/10 04:27:27;;;;;;;11.55;9.10;;;;;;;;;;5020046;28;20488;-64
2021/05/10 04:30:13;;;;;;;8.85;8.05;;;;;;;;;;5033844;28;20076;-64
2021/05/10 04:33:01;;;;;;;10.07;8.80;;;;;;;;;;5019361;28;20100;-63
2021/05/10 04:35:46;;;;;;;8.63;6.88;;;;;;;;;;5034019;28;20049;-64
2021/05/10 04:38:32;;;;;;;8.88;7.07;;;;;;;;;;5033526;28;20045;-64
2021/05/10 04:41:17;;;;;;;6.82;6.18;;;;;;;;;;5033614;28;20049;-64
2021/05/10 04:44:03;;;;;;;8.05;5.85;;;;;;;;;;5033864;28;20056;-63
2021/05/10 04:46:48;;;;;;;4.80;4.13;;;;;;;;;;5081213;22;20052;-62
2021/05/10 04:49:33;;;;;;;4.95;2.83;;;;;;;;;;5067703;28;20056;-64
2021/05/10 04:52:19;;;;;;;4.88;2.67;;;;;;;;;;5073765;28;20067;-64
2021/05/10 04:55:05;;;;;;;7.07;2.20;;;;;;;;;;5073610;28;20052;-64
2021/05/10 04:57:51;;;;;;;4.32;2.42;;;;;;;;;;5071777;28;20135;-64
2021/05/10 05:00:36;;;;;;;3.80;2.47;;;;;;;;;;5073120;28;20059;-64
2021/05/10 05:03:21;;;;;;;5.82;2.67;;;;;;;;;;5070806;28;20045;-64
2021/05/10 05:06:06;;;;;;;3.03;2.50;;;;;;;;;;5047694;28;20065;-63
2021/05/10 05:08:52;;;;;;;7.63;2.63;;;;;;;;;;5054549;28;20049;-63
2021/05/10 05:11:37;;;;;;;3.88;2.40;;;;;;;;;;5071644;28;20045;-65
2021/05/10 05:14:24;;;;;;;4.20;1.92;;;;;;;;;;5069300;28;20048;-65
2021/05/10 05:17:10;;;;;;;5.38;2.17;;;;;;;;;;5073633;28;20091;-63
2021/05/10 05:19:55;;;;;;;4.60;1.90;;;;;;;;;;5069881;28;20049;-63
2021/05/10 05:22:41;;;;;;;9.13;1.98;;;;;;;;;;5072966;28;20130;-62
2021/05/10 05:25:26;;;;;;;3.42;1.50;;;;;;;;;;5073093;28;20123;-64
2021/05/10 05:28:11;;;;;;;7.18;2.05;;;;;;;;;;5071393;28;20041;-63
2021/05/10 05:30:59;;;;;;;6.35;1.98;;;;;;;;;;5072786;28;20053;-62
2021/05/10 05:33:44;;;;;;;4.15;1.75;;;;;;;;;;5073050;28;20041;-65
2021/05/10 05:36:31;;;;;;;6.82;1.50;;;;;;;;;;5073426;28;20119;-63
2021/05/10 05:39:16;;;;;;;8.13;1.92;;;;;;;;;;5071014;28;20041;-63
2021/05/10 05:42:02;;;;;;;4.78;1.75;;;;;;;;;;5072535;28;20086;-64
2021/05/10 05:44:50;;;;;;;6.03;2.08;;;;;;;;;;5072774;28;20048;-62
2021/05/10 05:47:35;;;;;;;3.67;1.42;;;;;;;;;;5072931;28;20040;-65
2021/05/10 05:50:20;;;;;;;4.85;1.63;;;;;;;;;;5072096;28;20049;-65
2021/05/10 05:53:06;;;;;;;3.10;1.50;;;;;;;;;;5073521;28;20040;-65
2021/05/10 05:55:51;;;;;;;6.75;1.80;;;;;;;;;;5073529;28;20048;-65
2021/05/10 05:58:37;;;;;;;5.47;1.40;;;;;;;;;;5071403;28;20044;-65
2021/05/10 06:01:24;;;;;;;5.45;1.80;;;;;;;;;;5072331;28;20127;-64
2021/05/10 06:04:11;;;;;;;3.05;1.30;;;;;;;;;;5073258;28;20040;-65
2021/05/10 06:06:56;;;;;;;1.95;1.05;;;;;;;;;;5073195;28;20047;-64
2021/05/10 06:09:43;;;;;;;2.83;1.23;;;;;;;;;;5071655;28;20055;-65
2021/05/10 06:12:28;;;;;;;4.05;1.55;;;;;;;;;;5073823;28;20140;-64
2021/05/10 06:15:13;;;;;;;4.75;1.20;;;;;;;;;;5073349;28;20055;-65
2021/05/10 06:17:59;;;;;;;4.47;1.10;;;;;;;;;;5073695;28;20452;-64
2021/05/10 06:20:44;;;;;;;5.70;1.25;;;;;;;;;;5071923;28;20129;-65
2021/05/10 06:23:30;;;;;;;2.50;1.10;;;;;;;;;;5072795;28;20048;-65
2021/05/10 06:26:15;;;;;;;3.25;1.00;;;;;;;;;;5072788;28;20059;-63
2021/05/10 06:29:01;;;;;;;3.63;1.40;;;;;;;;;;5071963;28;20499;-64
2021/05/10 06:31:46;;;;;;;2.25;1.00;;;;;;;;;;5070669;28;20067;-63
2021/05/10 06:34:31;;;;;;;3.65;1.48;;;;;;;;;;5072190;28;20064;-63
2021/05/10 06:37:20;;;;;;;5.68;1.05;;;;;;;;;;5072071;28;20055;-63
2021/05/10 06:40:06;;;;;;;5.13;1.13;;;;;;;;;;5070169;28;20047;-63
2021/05/10 06:42:52;;;;;;;3.08;1.45;;;;;;;;;;5071977;28;20045;-63
2021/05/10 06:45:37;;;;;;;3.13;1.00;;;;;;;;;;5066962;28;20505;-63
2021/05/10 06:48:26;;;;;;;4.18;1.48;;;;;;;;;;5071827;28;20152;-63
2021/05/10 06:51:12;;;;;;;6.05;1.00;;;;;;;;;;5062408;28;20094;-63
2021/05/10 06:53:59;;;;;;;3.90;1.35;;;;;;;;;;5071899;28;20095;-64
2021/05/10 06:56:44;;;;;;;4.38;1.20;;;;;;;;;;5068177;28;20052;-62
2021/05/10 06:59:30;;;;;;;5.82;1.33;;;;;;;;;;5071744;28;20049;-63
2021/05/10 07:02:16;;;;;;;2.72;1.00;;;;;;;;;;5064659;28;20040;-65
2021/05/10 07:05:01;;;;;;;8.48;1.60;;;;;;;;;;5071756;28;20045;-63
2021/05/10 07:07:46;;;;;;;1.90;0.90;;;;;;;;;;5069622;28;20048;-64
2021/05/10 07:10:32;;;;;;;5.07;1.05;;;;;;;;;;5071638;28;20052;-64
2021/05/10 07:13:22;;;;;;;9.95;0.95;;;;;;;;;;5071658;28;20064;-63
2021/05/10 07:16:09;;;;;;;2.75;0.85;;;;;;;;;;5075276;28;20052;-66
2021/05/10 07:18:54;;;;;;;3.17;0.82;;;;;;;;;;5077041;28;20119;-65
2021/05/10 07:21:39;;;;;;;4.97;1.27;;;;;;;;;;5074971;28;20048;-64
2021/05/10 07:24:25;;;;;;;13.07;1.10;;;;;;;;;;5077384;28;20056;-66
2021/05/10 07:27:10;;;;;;;1.92;0.55;;;;;;;;;;5076048;28;20064;-66
2021/05/10 07:29:56;;;;;;;0.82;0.38;;;;;;;;;;5075564;28;20044;-64
2021/05/10 07:32:41;;;;;;;2.40;0.50;;;;;;;;;;5079233;28;20123;-65
2021/05/10 07:35:27;;;;;;;1.48;0.20;;;;;;;;;;5082548;28;20052;-65
2021/05/10 07:38:13;;;;;;;0.82;0.20;;;;;;;;;;5073347;28;20067;-65
2021/05/10 07:40:58;;;;;;;0.85;0.43;;;;;;;;;;5074587;28;20135;-65
2021/05/10 07:43:47;;;;;;;1.25;0.20;;;;;;;;;;5074981;28;20083;-65
2021/05/10 07:46:34;;;;;;;3.03;0.30;;;;;;;;;;5074811;28;20125;-65
2021/05/10 07:49:19;;;;;;;0.40;0.25;;;;;;;;;;5072874;28;20185;-65
2021/05/10 07:52:09;;;;;;;2.08;0.25;;;;;;;;;;5074960;28;20044;-65
2021/05/10 07:54:55;;;;;;;0.85;0.20;;;;;;;;;;5074632;28;20044;-65
2021/05/10 07:57:41;;;;;;;1.48;0.20;;;;;;;;;;5074050;28;20476;-64
2021/05/10 08:00:37;;;;;;;0.40;0.10;;;;;;;;;;5070093;28;20552;-65
2021/05/10 08:03:26;;;;;;;6.80;0.60;;;;;;;;;;5074376;28;20045;-64
2021/05/10 08:06:11;;;;;;;1.15;0.30;;;;;;;;;;5074413;28;20534;-65
2021/05/10 08:08:56;;;;;;;0.50;0.22;;;;;;;;;;5071870;28;20040;-64
2021/05/10 08:11:42;;;;;;;0.32;0.10;;;;;;;;;;5074228;28;20052;-65
2021/05/10 08:14:29;;;;;;;0.75;0.30;;;;;;;;;;5074689;28;20048;-65
2021/05/10 08:17:15;;;;;;;2.78;0.20;;;;;;;;;;5074137;28;20419;-64
2021/05/10 08:20:00;;;;;;;1.58;0.20;;;;;;;;;;5072298;28;20044;-65
2021/05/10 08:22:46;;;;;;;0.25;0.15;;;;;;;;;;5076136;28;20055;-66
2021/05/10 08:25:31;;;;;;;0.63;0.40;;;;;;;;;;5079663;28;20048;-65
2021/05/10 08:28:17;;;;;;;0.75;0.50;;;;;;;;;;5081470;28;20036;-65
2021/05/10 08:31:02;;;;;;;1.95;0.30;;;;;;;;;;5078494;28;20064;-65
2021/05/10 08:33:50;;;;;;;1.83;0.40;;;;;;;;;;5079346;28;20049;-65
2021/05/10 08:36:35;;;;;;;0.77;0.20;;;;;;;;;;5073906;28;20040;-65
2021/05/10 08:39:21;;;;;;;0.57;0.20;;;;;;;;;;5070026;28;20052;-65
2021/05/10 08:42:06;;;;;;;1.15;0.60;;;;;;;;;;5073792;28;20041;-65
2021/05/10 08:44:51;;;;;;;1.08;0.40;;;;;;;;;;5059656;28;20053;-65
2021/05/10 08:47:38;;;;;;;1.08;0.50;;;;;;;;;;5068589;28;20055;-65
2021/05/10 08:50:24;;;;;;;2.70;0.50;;;;;;;;;;5067579;28;20132;-64
2021/05/10 08:53:09;;;;;;;0.65;0.50;;;;;;;;;;5073775;28;20532;-64
2021/05/10 08:55:55;;;;;;;2.03;0.50;;;;;;;;;;5072027;28;20048;-63
2021/05/10 08:58:43;;;;;;;1.17;0.50;;;;;;;;;;5069434;28;20486;-63
2021/05/10 09:01:29;;;;;;;1.25;0.60;;;;;;;;;;5073116;28;20041;-64
2021/05/10 09:04:14;;;;;;;0.75;0.50;;;;;;;;;;5072383;28;20049;-64
2021/05/10 09:07:11;;;;;;;1.10;0.70;;;;;;;;;;5066981;28;20154;-64
2021/05/10 09:10:00;;;;;;;1.95;0.70;;;;;;;;;;5073047;28;20041;-65
2021/05/10 09:12:46;;;;;;;2.55;0.70;;;;;;;;;;5073389;28;20049;-65
2021/05/10 09:15:32;;;;;;;1.33;0.93;;;;;;;;;;5069366;28;20040;-65
2021/05/10 09:18:17;;;;;;;1.33;0.73;;;;;;;;;;5073198;28;20049;-65
2021/05/10 09:21:12;;;;;;;3.28;1.13;;;;;;;;;;5072381;28;20052;-65
2021/05/10 09:23:58;;;;;;;2.47;0.93;;;;;;;;;;5078784;28;20087;-65
2021/05/10 09:26:43;;;;;;;1.63;1.05;;;;;;;;;;5075591;28;20040;-66
2021/05/10 09:29:29;;;;;;;2.38;1.02;;;;;;;;;;5078628;28;20044;-65
2021/05/10 09:32:30;;;;;;;2.47;0.80;;;;;;;;;;5075142;28;20040;-66
2021/05/10 09:35:15;;;;;;;1.70;0.82;;;;;;;;;;5077606;28;20047;-65
2021/05/10 09:38:09;;;;;;;2.08;1.15;;;;;;;;;;5078338;28;20490;-64
2021/05/10 09:40:55;;;;;;;2.50;0.85;;;;;;;;;;5078063;28;20086;-65
2021/05/10 09:43:42;;;;;;;2.03;0.75;;;;;;;;;;5079269;28;20051;-65
2021/05/10 09:46:43;;;;;;;0.90;0.73;;;;;;;;;;5078789;28;20076;-65
2021/05/10 09:49:42;;;;;;;1.20;0.80;;;;;;;;;;5078336;28;20041;-66
2021/05/10 09:52:30;;;;;;;1.25;0.95;;;;;;;;;;5077551;28;20052;-66
2021/05/10 09:55:15;;;;;;;3.22;0.93;;;;;;;;;;5078420;28;20044;-65
2021/05/10 09:58:01;;;;;;;2.20;1.20;;;;;;;;;;5076770;28;20041;-65
2021/05/10 10:00:46;;;;;;;2.25;0.80;;;;;;;;;;5075138;28;20413;-65
2021/05/10 10:03:34;;;;;;;2.28;0.70;;;;;;;;;;5076158;28;20480;-65
2021/05/10 10:06:19;;;;;;;1.23;0.60;;;;;;;;;;5074291;28;20139;-63
2021/05/10 10:09:05;;;;;;;1.98;0.47;;;;;;;;;;5074840;28;20072;-65
2021/05/10 10:11:50;;;;;;;1.15;0.65;;;;;;;;;;5073040;28;20040;-64
2021/05/10 10:14:37;;;;;;;1.95;0.80;;;;;;;;;;5074192;28;20044;-65
2021/05/10 10:17:22;;;;;;;1.73;0.88;;;;;;;;;;5074089;28;20041;-66
2021/05/10 10:20:08;;;;;;;1.05;0.88;;;;;;;;;;5074542;28;20314;-65
2021/05/10 10:22:54;;;;;;;1.08;0.80;;;;;;;;;;5070152;28;20114;-65
2021/05/10 10:25:40;;;;;;;2.58;0.90;;;;;;;;;;5075070;28;20045;-65
2021/05/10 10:28:26;;;;;;;2.05;0.77;;;;;;;;;;5076650;28;20119;-66
2021/05/10 10:31:14;;;;;;;1.02;0.70;;;;;;;;;;5075731;28;20068;-65
2021/05/10 10:33:59;;;;;;;0.60;0.55;;;;;;;;;;5073660;28;20052;-66
2021/05/10 10:37:05;;;;;;;1.42;0.60;;;;;;;;;;5076411;28;20045;-65
2021/05/10 10:39:53;;;;;;;1.38;0.77;;;;;;;;;;5075043;28;20068;-65
2021/05/10 10:42:38;;;;;;;1.42;0.70;;;;;;;;;;5072309;28;20123;-65
2021/05/10 10:45:25;;;;;;;1.00;0.70;;;;;;;;;;5075794;28;20519;-66
2021/05/10 10:48:11;;;;;;;3.97;1.05;;;;;;;;;;5109617;22;20108;-66
2021/05/10 10:51:00;;;;;;;0.85;0.80;;;;;;;;;;5070969;28;20068;-64
2021/05/10 10:53:49;;;;;;;3.03;1.15;;;;;;;;;;5069324;28;20045;-65
2021/05/10 10:56:54;;;;;;;2.92;0.90;;;;;;;;;;5070692;28;20087;-63
2021/05/10 10:59:42;;;;;;;0.98;0.82;;;;;;;;;;5071600;28;20048;-64
2021/05/10 11:02:28;;;;;;;2.35;1.10;;;;;;;;;;5069000;28;20048;-63
2021/05/10 11:05:18;;;;;;;3.22;1.27;;;;;;;;;;5071880;28;20413;-63
2021/05/10 11:08:06;;;;;;;1.45;1.13;;;;;;;;;;5071807;28;20506;-63
2021/05/10 11:10:55;;;;;;;2.38;1.20;;;;;;;;;;5075240;28;20494;-63
2021/05/10 11:13:40;;;;;;;1.73;1.63;;;;;;;;;;5072425;28;20041;-63
2021/05/10 11:16:45;;;;;;;2.85;1.60;;;;;;;;;;5075670;28;20053;-63
2021/05/10 11:19:36;;;;;;;2.88;1.83;;;;;;;;;;5075032;28;20048;-63
2021/05/10 11:22:31;;;;;;;1.95;1.75;;;;;;;;;;5073824;28;20040;-63
2021/05/10 11:25:35;;;;;;;1.85;1.58;;;;;;;;;;5072747;28;20094;-63
2021/05/10 11:28:27;;;;;;;2.88;1.88;;;;;;;;;;5075418;28;20048;-63
2021/05/10 11:31:15;;;;;;;4.55;2.17;;;;;;;;;;5075107;28;20040;-63
2021/05/10 11:34:01;;;;;;;2.60;2.40;;;;;;;;;;5075091;28;20124;-63
2021/05/10 11:36:47;;;;;;;2.15;1.95;;;;;;;;;;5074503;28;20045;-63
2021/05/10 11:39:33;;;;;;;1.77;1.67;;;;;;;;;;5074826;28;20048;-63
2021/05/10 11:42:19;;;;;;;4.05;1.92;;;;;;;;;;5075085;28;20049;-63
2021/05/10 11:45:04;;;;;;;3.50;1.98;;;;;;;;;;5073304;28;20559;-63
2021/05/10 11:47:50;;;;;;;4.35;1.98;;;;;;;;;;5074226;28;20483;-63
2021/05/10 11:50:44;;;;;;;3.17;1.73;;;;;;;;;;5073435;28;20040;-63
2021/05/10 11:53:29;;;;;;;2.30;2.05;;;;;;;;;;5073621;28;20045;-63
2021/05/10 11:56:38;;;;;;;3.88;1.90;;;;;;;;;;5071967;28;20052;-63
2021/05/10 11:59:42;;;;;;;4.47;1.73;;;;;;;;;;5073351;28;20052;-63
2021/05/10 12:02:29;;;;;;;4.28;1.88;;;;;;;;;;5073484;28;20044;-63
2021/05/10 12:05:15;;;;;;;3.40;2.38;;;;;;;;;;5073317;28;20095;-64
2021/05/10 12:08:00;;;;;;;2.10;1.30;;;;;;;;;;5073654;28;20045;-63
2021/05/10 12:10:45;;;;;;;3.80;1.20;;;;;;;;;;5073181;28;20041;-63
2021/05/10 12:13:31;;;;;;;2.33;1.17;;;;;;;;;;5073282;28;20044;-63
2021/05/10 12:16:16;;;;;;;5.30;2.03;;;;;;;;;;5071786;28;20124;-63
2021/05/10 12:19:01;;;;;;;3.47;1.67;;;;;;;;;;5071706;28;20048;-65
2021/05/10 12:21:47;;;;;;;3.58;1.98;;;;;;;;;;5072462;28;20503;-64
2021/05/10 12:24:32;;;;;;;7.60;1.98;;;;;;;;;;5073297;28;20048;-64
2021/05/10 12:27:17;;;;;;;4.10;1.90;;;;;;;;;;5071836;28;20455;-65
2021/05/10 12:30:04;;;;;;;4.47;3.08;;;;;;;;;;5071676;28;20045;-64
2021/05/10 12:32:50;;;;;;;3.08;2.63;;;;;;;;;;5072200;28;20075;-62
2021/05/10 12:35:51;;;;;;;3.75;2.60;;;;;;;;;;5073078;28;20053;-64
2021/05/10 12:38:42;;;;;;;3.83;2.78;;;;;;;;;;5071179;28;20044;-63
2021/05/10 12:41:29;;;;;;;3.45;2.80;;;;;;;;;;5073123;28;20413;-63
2021/05/10 12:44:14;;;;;;;2.67;2.47;;;;;;;;;;5072759;28;20484;-64
2021/05/10 12:47:00;;;;;;;3.88;2.53;;;;;;;;;;5052789;28;518562;-64
2021/05/10 12:49:45;;;;;;;3.85;2.58;;;;;;;;;;5072524;28;20143;-64
2021/05/10 12:52:30;;;;;;;3.58;2.50;;;;;;;;;;5073736;28;20048;-64
2021/05/10 12:55:17;;;;;;;3.88;2.25;;;;;;;;;;5073700;28;20486;-63
2021/05/10 12:58:18;;;;;;;3.08;1.80;;;;;;;;;;5071907;28;20111;-64
2021/05/10 13:01:12;;;;;;;2.65;1.50;;;;;;;;;;5073295;28;20045;-62
2021/05/10 13:04:01;;;;;;;4.78;1.40;;;;;;;;;;5073315;28;20448;-63
2021/05/10 13:06:47;;;;;;;2.70;1.35;;;;;;;;;;5073511;28;20050;-63
2021/05/10 13:09:32;;;;;;;2.78;1.35;;;;;;;;;;5070488;28;20045;-65
2021/05/10 13:12:17;;;;;;;3.78;1.55;;;;;;;;;;5073879;28;20131;-63
2021/05/10 13:15:02;;;;;;;3.28;1.65;;;;;;;;;;5074147;28;20048;-64
2021/05/10 13:18:01;;;;;;;3.75;1.65;;;;;;;;;;5072791;28;20041;-63
2021/05/10 13:32:48;;;;;;;3.35;1.77;;;;;;;;;;5073192;28;20052;-65
2021/05/10 13:35:36;;;;;;;2.97;1.95;;;;;;;;;;5073019;28;20135;-63
2021/05/10 13:38:21;;;;;;;3.00;1.58;;;;;;;;;;5072659;28;20518;-63
2021/05/10 13:41:09;;;;;;;3.13;2.03;;;;;;;;;;5071183;28;20045;-63
2021/05/10 13:44:00;;;;;;;4.72;2.10;;;;;;;;;;5072835;28;20053;-64
2021/05/10 13:46:47;;;;;;;4.03;1.80;;;;;;;;;;5072439;28;20064;-63
2021/05/10 13:49:34;;;;;;;5.90;2.05;;;;;;;;;;5070484;28;20123;-64
2021/05/10 13:52:19;;;;;;;3.50;1.25;;;;;;;;;;5071558;28;20040;-63
2021/05/10 13:55:04;;;;;;;5.18;2.00;;;;;;;;;;5072477;28;20093;-64
2021/05/10 13:57:51;;;;;;;3.95;1.20;;;;;;;;;;5072377;28;20127;-65
2021/05/10 14:00:36;;;;;;;3.00;1.58;;;;;;;;;;5065564;28;20132;-64
2021/05/10 14:03:21;;;;;;;3.90;1.45;;;;;;;;;;5072427;28;20098;-63
2021/05/10 14:06:07;;;;;;;3.80;1.60;;;;;;;;;;5072527;28;20040;-63
2021/05/10 14:08:53;;;;;;;3.33;1.35;;;;;;;;;;5071107;28;20040;-64
2021/05/10 14:11:38;;;;;;;4.50;1.80;;;;;;;;;;5070309;28;20498;-63
2021/05/10 14:14:23;;;;;;;4.25;1.40;;;;;;;;;;5072482;28;20406;-64
2021/05/10 14:17:08;;;;;;;4.03;1.50;;;;;;;;;;5072218;28;20048;-64
2021/05/10 14:19:55;;;;;;;4.70;1.83;;;;;;;;;;5070756;28;20048;-63
2021/05/10 14:22:40;;;;;;;4.85;2.00;;;;;;;;;;5045103;28;20040;-63
2021/05/10 14:25:25;;;;;;;2.55;1.20;;;;;;;;;;5072195;28;20131;-63
2021/05/10 14:28:11;;;;;;;2.95;1.42;;;;;;;;;;5072127;28;20119;-64
2021/05/10 14:31:00;;;;;;;5.00;1.88;;;;;;;;;;5070244;28;20055;-64
2021/05/10 14:33:46;;;;;;;4.65;1.98;;;;;;;;;;5072042;28;20048;-63
2021/05/10 14:36:33;;;;;;;2.75;1.60;;;;;;;;;;5072078;28;20048;-63
2021/05/10 14:39:18;;;;;;;4.35;2.13;;;;;;;;;;5071844;28;20057;-64
2021/05/10 14:42:03;;;;;;;5.47;1.90;;;;;;;;;;5070612;28;20045;-63
2021/05/10 14:44:49;;;;;;;3.55;2.28;;;;;;;;;;5075275;28;20049;-63
2021/05/10 14:47:34;;;;;;;4.47;1.65;;;;;;;;;;5075862;28;20037;-64
2021/05/10 14:50:20;;;;;;;3.42;1.42;;;;;;;;;;5075999;28;20483;-64
2021/05/10 14:53:05;;;;;;;4.35;1.90;;;;;;;;;;5074414;28;20052;-64
2021/05/10 14:55:51;;;;;;;6.03;1.80;;;;;;;;;;5075881;28;20127;-63
2021/05/10 14:58:36;;;;;;;4.38;1.85;;;;;;;;;;5074726;28;20536;-64
2021/05/10 15:01:22;;;;;;;4.22;1.80;;;;;;;;;;5073839;28;20041;-64
2021/05/10 15:04:08;;;;;;;4.20;1.55;;;;;;;;;;5075698;28;20040;-63
2021/05/10 15:06:53;;;;;;;3.08;1.40;;;;;;;;;;5076008;28;20147;-63
2021/05/10 15:09:38;;;;;;;3.58;1.85;;;;;;;;;;5075554;28;20048;-63
2021/05/10 15:12:24;;;;;;;5.00;1.95;;;;;;;;;;5073800;28;20064;-63
2021/05/10 15:15:10;;;;;;;5.43;2.08;;;;;;;;;;5075476;28;20048;-63
2021/05/10 15:17:56;;;;;;;3.08;1.88;;;;;;;;;;5073164;28;20045;-63
2021/05/10 15:20:42;;;;;;;3.50;1.63;;;;;;;;;;5075007;28;20517;-64
2021/05/10 15:23:27;;;;;;;3.65;1.92;;;;;;;;;;5071357;28;20094;-63
2021/05/10 15:26:18;;;;;;;2.75;1.52;;;;;;;;;;5075247;28;20417;-63
2021/05/10 15:29:03;;;;;;;3.17;2.05;;;;;;;;;;5074306;28;20059;-63
2021/05/10 15:31:52;;;;;;;4.55;1.80;;;;;;;;;;5073943;28;20057;-64
2021/05/10 15:34:40;;;;;;;2.58;2.13;;;;;;;;;;5042965;28;20044;-63
2021/05/10 15:37:25;;;;;;;3.63;2.42;;;;;;;;;;5073819;28;20052;-63
2021/05/10 15:40:14;;;;;;;3.05;1.88;;;;;;;;;;5074476;28;20052;-64
2021/05/10 15:42:59;;;;;;;2.58;2.00;;;;;;;;;;5073384;28;20048;-66
2021/05/10 15:45:44;;;;;;;3.20;2.08;;;;;;;;;;5069075;28;20044;-63
2021/05/10 15:48:29;;;;;;;4.68;2.35;;;;;;;;;;5074653;28;20048;-63
2021/05/10 15:51:15;;;;;;;3.30;2.15;;;;;;;;;;5068993;28;20048;-64
2021/05/10 15:54:00;;;;;;;2.85;2.35;;;;;;;;;;5074519;28;20045;-63
2021/05/10 15:56:47;;;;;;;4.53;2.60;;;;;;;;;;5074573;28;20078;-64
2021/05/10 15:59:33;;;;;;;3.67;2.95;;;;;;;;;;5073914;28;20495;-64
2021/05/10 16:02:18;;;;;;;4.47;2.53;;;;;;;;;;5066277;28;20049;-64
2021/05/10 16:05:04;;;;;;;3.85;2.50;;;;;;;;;;5070944;28;20040;-64
2021/05/10 16:07:50;;;;;;;3.30;2.25;;;;;;;;;;5038732;28;20041;-63
2021/05/10 16:10:35;;;;;;;2.65;1.98;;;;;;;;;;5051600;28;20045;-63
2021/05/10 16:13:21;;;;;;;4.38;2.63;;;;;;;;;;5055490;28;20052;-64
2021/05/10 16:16:06;;;;;;;3.78;2.80;;;;;;;;;;5041079;28;20495;-63
2021/05/10 16:18:53;;;;;;;4.00;2.17;;;;;;;;;;5039662;28;20510;-63
2021/05/10 16:21:38;;;;;;;5.68;2.63;;;;;;;;;;5051473;28;20496;-64
2021/05/10 16:24:23;;;;;;;2.97;2.28;;;;;;;;;;5051330;28;20053;-63
2021/05/10 16:27:09;;;;;;;4.07;3.00;;;;;;;;;;5047545;28;20068;-64
2021/05/10 16:29:54;;;;;;;3.60;2.97;;;;;;;;;;5051732;28;20049;-63
2021/05/10 16:32:41;;;;;;;4.90;3.47;;;;;;;;;;5045358;28;20068;-63
2021/05/10 16:35:26;;;;;;;3.40;2.90;;;;;;;;;;5044057;28;20064;-63
2021/05/10 16:38:11;;;;;;;4.05;3.60;;;;;;;;;;5050975;28;20040;-63
2021/05/10 16:40:57;;;;;;;4.75;3.13;;;;;;;;;;5051810;28;20163;-63
2021/05/10 16:43:43;;;;;;;6.03;3.53;;;;;;;;;;5057733;28;20049;-63
2021/05/10 16:46:29;;;;;;;5.60;2.90;;;;;;;;;;5050060;28;20045;-63
2021/05/10 16:49:14;;;;;;;5.40;3.80;;;;;;;;;;5086315;22;20127;-64
2021/05/10 16:51:59;;;;;;;5.35;3.15;;;;;;;;;;5034381;28;20515;-65